sensor_id;sensor_type;location;lat;lon;timestamp;pressure;altitude;pressure_sealevel;temperature
24714;BMP280;12820;51.580;5.010;2022-10-03T00:08:05;102548.63;;;13.01
24714;BMP280;12820;51.580;5.010;2022-10-03T00:13:21;102553.66;;;12.97
24714;BMP280;12820;51.580;5.010;2022-10-03T00:23:55;102546.91;;;12.90
24714;BMP280;12820;51.580;5.010;2022-10-03T00:56:05;102593.06;;;12.62
24714;BMP280;12820;51.580;5.010;2022-10-03T01:01:22;102592.97;;;12.57
24714;BMP280;12820;51.580;5.010;2022-10-03T01:11:49;102608.91;;;12.49
24714;BMP280;12820;51.580;5.010;2022-10-03T01:28:19;102615.56;;;12.35
24714;BMP280;12820;51.580;5.010;2022-10-03T01:33:47;102618.91;;;12.31
24714;BMP280;12820;51.580;5.010;2022-10-03T01:39:08;102624.75;;;12.29
24714;BMP280;12820;51.580;5.010;2022-10-03T01:44:29;102624.75;;;12.26
24714;BMP280;12820;51.580;5.010;2022-10-03T01:49:37;102618.00;;;12.22
24714;BMP280;12820;51.580;5.010;2022-10-03T01:54:51;102619.66;;;12.19
24714;BMP280;12820;51.580;5.010;2022-10-03T02:00:07;102619.63;;;12.16
24714;BMP280;12820;51.580;5.010;2022-10-03T02:21:22;102621.22;;;12.04
24714;BMP280;12820;51.580;5.010;2022-10-03T02:47:54;102616.06;;;11.89
24714;BMP280;12820;51.580;5.010;2022-10-03T03:09:50;102644.47;;;11.76
24714;BMP280;12820;51.580;5.010;2022-10-03T03:20:40;102632.66;;;11.70
24714;BMP280;12820;51.580;5.010;2022-10-03T03:31:10;102632.59;;;11.64
24714;BMP280;12820;51.580;5.010;2022-10-03T03:36:17;102630.88;;;11.60
24714;BMP280;12820;51.580;5.010;2022-10-03T04:02:45;102662.66;;;11.46
24714;BMP280;12820;51.580;5.010;2022-10-03T04:13:12;102655.91;;;11.45
24714;BMP280;12820;51.580;5.010;2022-10-03T04:18:46;102655.13;;;11.51
24714;BMP280;12820;51.580;5.010;2022-10-03T04:29:52;102652.81;;;11.67
24714;BMP280;12820;51.580;5.010;2022-10-03T04:35:15;102659.53;;;11.72
24714;BMP280;12820;51.580;5.010;2022-10-03T04:46:04;102654.59;;;11.82
24714;BMP280;12820;51.580;5.010;2022-10-03T04:51:36;102668.09;;;11.87
24714;BMP280;12820;51.580;5.010;2022-10-03T04:56:51;102669.81;;;11.91
24714;BMP280;12820;51.580;5.010;2022-10-03T05:02:09;102673.19;;;11.93
24714;BMP280;12820;51.580;5.010;2022-10-03T05:07:28;102669.84;;;11.94
24714;BMP280;12820;51.580;5.010;2022-10-03T05:12:46;102671.56;;;11.95
24714;BMP280;12820;51.580;5.010;2022-10-03T05:28:41;102673.25;;;11.97
24714;BMP280;12820;51.580;5.010;2022-10-03T05:33:51;102677.41;;;11.94
24714;BMP280;12820;51.580;5.010;2022-10-03T05:55:28;102699.91;;;11.76
24714;BMP280;12820;51.580;5.010;2022-10-03T06:06:10;102712.44;;;11.71
24714;BMP280;12820;51.580;5.010;2022-10-03T06:16:52;102720.81;;;11.68
24714;BMP280;12820;51.580;5.010;2022-10-03T06:50:11;102728.59;;;11.89
24714;BMP280;12820;51.580;5.010;2022-10-03T06:55:36;102720.34;;;12.03
24714;BMP280;12820;51.580;5.010;2022-10-03T07:39:43;102761.81;;;13.57
24714;BMP280;12820;51.580;5.010;2022-10-03T08:06:39;102766.19;;;13.87
24714;BMP280;12820;51.580;5.010;2022-10-03T09:01:06;102787.38;;;14.94
24714;BMP280;12820;51.580;5.010;2022-10-03T09:06:29;102790.72;;;15.05
24714;BMP280;12820;51.580;5.010;2022-10-03T09:17:01;102783.09;;;15.30
24714;BMP280;12820;51.580;5.010;2022-10-03T09:22:24;102770.38;;;15.46
24714;BMP280;12820;51.580;5.010;2022-10-03T09:27:42;102771.09;;;15.71
24714;BMP280;12820;51.580;5.010;2022-10-03T09:59:59;102753.91;;;17.84
24714;BMP280;12820;51.580;5.010;2022-10-03T10:26:34;102735.06;;;19.40
24714;BMP280;12820;51.580;5.010;2022-10-03T11:22:18;102687.47;;;26.92
24714;BMP280;12820;51.580;5.010;2022-10-03T11:38:57;102686.97;;;30.99
24714;BMP280;12820;51.580;5.010;2022-10-03T11:44:14;102684.09;;;30.91
24714;BMP280;12820;51.580;5.010;2022-10-03T12:00:20;102679.69;;;29.65
24714;BMP280;12820;51.580;5.010;2022-10-03T12:15:56;102670.91;;;25.44
24714;BMP280;12820;51.580;5.010;2022-10-03T12:26:15;102663.63;;;24.20
24714;BMP280;12820;51.580;5.010;2022-10-03T12:31:25;102658.03;;;23.69
24714;BMP280;12820;51.580;5.010;2022-10-03T12:47:41;102654.81;;;22.75
24714;BMP280;12820;51.580;5.010;2022-10-03T12:58:35;102643.44;;;23.28
24714;BMP280;12820;51.580;5.010;2022-10-03T13:03:57;102637.06;;;24.00
24714;BMP280;12820;51.580;5.010;2022-10-03T13:09:23;102645.13;;;25.08
24714;BMP280;12820;51.580;5.010;2022-10-03T13:20:39;102635.34;;;24.78
24714;BMP280;12820;51.580;5.010;2022-10-03T13:26:20;102635.06;;;24.27
24714;BMP280;12820;51.580;5.010;2022-10-03T13:31:28;102638.63;;;24.04
24714;BMP280;12820;51.580;5.010;2022-10-03T13:36:38;102623.06;;;23.86
24714;BMP280;12820;51.580;5.010;2022-10-03T13:42:17;102622.06;;;24.30
24714;BMP280;12820;51.580;5.010;2022-10-03T13:47:40;102620.31;;;24.11
24714;BMP280;12820;51.580;5.010;2022-10-03T13:52:54;102611.19;;;23.63
24714;BMP280;12820;51.580;5.010;2022-10-03T13:58:21;102611.78;;;23.05
24714;BMP280;12820;51.580;5.010;2022-10-03T14:03:35;102611.97;;;22.54
24714;BMP280;12820;51.580;5.010;2022-10-03T14:08:58;102603.84;;;22.18
24714;BMP280;12820;51.580;5.010;2022-10-03T14:30:21;102596.13;;;21.68
24714;BMP280;12820;51.580;5.010;2022-10-03T14:35:36;102581.91;;;21.59
24714;BMP280;12820;51.580;5.010;2022-10-03T14:40:51;102574.56;;;21.49
24714;BMP280;12820;51.580;5.010;2022-10-03T14:46:00;102577.41;;;21.40
24714;BMP280;12820;51.580;5.010;2022-10-03T14:51:22;102563.03;;;21.36
24714;BMP280;12820;51.580;5.010;2022-10-03T14:56:26;102557.25;;;21.30
24714;BMP280;12820;51.580;5.010;2022-10-03T15:01:28;102566.75;;;21.27
24714;BMP280;12820;51.580;5.010;2022-10-03T15:11:48;102549.41;;;21.09
24714;BMP280;12820;51.580;5.010;2022-10-03T15:16:54;102546.09;;;21.06
24714;BMP280;12820;51.580;5.010;2022-10-03T15:22:06;102546.03;;;21.07
24714;BMP280;12820;51.580;5.010;2022-10-03T15:27:18;102537.75;;;21.28
24714;BMP280;12820;51.580;5.010;2022-10-03T15:32:24;102523.38;;;22.00
24714;BMP280;12820;51.580;5.010;2022-10-03T15:37:31;102517.31;;;22.48
24714;BMP280;12820;51.580;5.010;2022-10-03T15:42:44;102503.09;;;22.64
24714;BMP280;12820;51.580;5.010;2022-10-03T15:47:48;102508.03;;;22.46
24714;BMP280;12820;51.580;5.010;2022-10-03T15:52:53;102510.16;;;22.11
24714;BMP280;12820;51.580;5.010;2022-10-03T15:58:27;102512.34;;;21.72
24714;BMP280;12820;51.580;5.010;2022-10-03T16:03:34;102506.44;;;21.45
24714;BMP280;12820;51.580;5.010;2022-10-03T16:08:59;102502.03;;;21.25
24714;BMP280;12820;51.580;5.010;2022-10-03T16:14:20;102499.09;;;21.08
24714;BMP280;12820;51.580;5.010;2022-10-03T16:24:33;102498.28;;;20.81
24714;BMP280;12820;51.580;5.010;2022-10-03T16:29:37;102496.94;;;20.68
24714;BMP280;12820;51.580;5.010;2022-10-03T16:34:45;102485.50;;;20.53
24714;BMP280;12820;51.580;5.010;2022-10-03T16:40:03;102486.78;;;20.39
24714;BMP280;12820;51.580;5.010;2022-10-03T16:45:19;102493.16;;;20.22
24714;BMP280;12820;51.580;5.010;2022-10-03T16:50:21;102483.47;;;20.04
24714;BMP280;12820;51.580;5.010;2022-10-03T16:55:44;102496.66;;;19.88
24714;BMP280;12820;51.580;5.010;2022-10-03T17:01:00;102480.13;;;19.70
24714;BMP280;12820;51.580;5.010;2022-10-03T17:06:27;102477.19;;;19.53
24714;BMP280;12820;51.580;5.010;2022-10-03T17:11:34;102477.53;;;19.39
24714;BMP280;12820;51.580;5.010;2022-10-03T17:16:43;102486.38;;;19.24
24714;BMP280;12820;51.580;5.010;2022-10-03T17:21:51;102480.69;;;19.12
24714;BMP280;12820;51.580;5.010;2022-10-03T17:26:58;102478.47;;;18.99
24714;BMP280;12820;51.580;5.010;2022-10-03T17:32:23;102477.91;;;18.87
24714;BMP280;12820;51.580;5.010;2022-10-03T17:42:55;102456.28;;;18.64
24714;BMP280;12820;51.580;5.010;2022-10-03T17:54:02;102488.19;;;18.43
24714;BMP280;12820;51.580;5.010;2022-10-03T17:59:13;102490.06;;;18.33
24714;BMP280;12820;51.580;5.010;2022-10-03T18:04:26;102480.13;;;18.22
24714;BMP280;12820;51.580;5.010;2022-10-03T18:09:33;102488.84;;;18.09
24714;BMP280;12820;51.580;5.010;2022-10-03T18:15:21;102478.94;;;17.96
24714;BMP280;12820;51.580;5.010;2022-10-03T18:20:41;102474.91;;;17.83
24714;BMP280;12820;51.580;5.010;2022-10-03T18:25:57;102457.31;;;17.70
24714;BMP280;12820;51.580;5.010;2022-10-03T18:31:23;102469.41;;;17.60
24714;BMP280;12820;51.580;5.010;2022-10-03T18:36:32;102467.88;;;17.50
24714;BMP280;12820;51.580;5.010;2022-10-03T18:41:42;102462.13;;;17.41
24714;BMP280;12820;51.580;5.010;2022-10-03T18:46:47;102477.47;;;17.33
24714;BMP280;12820;51.580;5.010;2022-10-03T18:57:36;102465.06;;;17.14
24714;BMP280;12820;51.580;5.010;2022-10-03T19:03:01;102463.53;;;17.05
24714;BMP280;12820;51.580;5.010;2022-10-03T19:08:16;102460.22;;;16.98
24714;BMP280;12820;51.580;5.010;2022-10-03T19:13:37;102437.47;;;16.89
24714;BMP280;12820;51.580;5.010;2022-10-03T19:18:58;102435.03;;;16.84
24714;BMP280;12820;51.580;5.010;2022-10-03T19:24:07;102433.44;;;16.77
24714;BMP280;12820;51.580;5.010;2022-10-03T19:29:21;102426.75;;;16.70
24714;BMP280;12820;51.580;5.010;2022-10-03T19:34:30;102429.41;;;16.64
24714;BMP280;12820;51.580;5.010;2022-10-03T19:39:36;102444.72;;;16.57
24714;BMP280;12820;51.580;5.010;2022-10-03T19:44:39;102435.47;;;16.52
24714;BMP280;12820;51.580;5.010;2022-10-03T20:05:17;102444.13;;;16.37
24714;BMP280;12820;51.580;5.010;2022-10-03T20:10:40;102442.44;;;16.36
24714;BMP280;12820;51.580;5.010;2022-10-03T20:15:47;102456.88;;;16.35
24714;BMP280;12820;51.580;5.010;2022-10-03T20:20:55;102454.34;;;16.33
24714;BMP280;12820;51.580;5.010;2022-10-03T20:26:03;102445.91;;;16.31
24714;BMP280;12820;51.580;5.010;2022-10-03T20:31:06;102456.06;;;16.30
24714;BMP280;12820;51.580;5.010;2022-10-03T20:41:18;102455.34;;;16.20
24714;BMP280;12820;51.580;5.010;2022-10-03T20:46:26;102444.41;;;16.16
24714;BMP280;12820;51.580;5.010;2022-10-03T20:51:54;102446.09;;;16.15
24714;BMP280;12820;51.580;5.010;2022-10-03T20:57:02;102440.28;;;16.07
24714;BMP280;12820;51.580;5.010;2022-10-03T21:02:13;102437.75;;;16.04
24714;BMP280;12820;51.580;5.010;2022-10-03T21:12:43;102436.97;;;16.00
24714;BMP280;12820;51.580;5.010;2022-10-03T21:17:46;102442.09;;;15.97
24714;BMP280;12820;51.580;5.010;2022-10-03T21:22:51;102430.25;;;15.96
24714;BMP280;12820;51.580;5.010;2022-10-03T21:27:57;102423.50;;;15.92
24714;BMP280;12820;51.580;5.010;2022-10-03T21:33:17;102437.88;;;15.90
24714;BMP280;12820;51.580;5.010;2022-10-03T21:38:26;102429.47;;;15.88
24714;BMP280;12820;51.580;5.010;2022-10-03T21:49:40;102400.00;;;15.78
24714;BMP280;12820;51.580;5.010;2022-10-03T22:00:14;102419.59;;;15.64
24714;BMP280;12820;51.580;5.010;2022-10-03T22:10:38;102413.81;;;15.49
24714;BMP280;12820;51.580;5.010;2022-10-03T22:15:52;102403.72;;;15.42
24714;BMP280;12820;51.580;5.010;2022-10-03T22:21:04;102382.69;;;15.34
24714;BMP280;12820;51.580;5.010;2022-10-03T22:31:36;102371.81;;;15.24
24714;BMP280;12820;51.580;5.010;2022-10-03T22:36:41;102364.25;;;15.19
24714;BMP280;12820;51.580;5.010;2022-10-03T22:41:48;102354.16;;;15.16
24714;BMP280;12820;51.580;5.010;2022-10-03T22:46:54;102347.41;;;15.14
24714;BMP280;12820;51.580;5.010;2022-10-03T22:51:58;102359.25;;;15.13
24714;BMP280;12820;51.580;5.010;2022-10-03T22:57:08;102361.81;;;15.12
24714;BMP280;12820;51.580;5.010;2022-10-03T23:02:11;102346.59;;;15.12
24714;BMP280;12820;51.580;5.010;2022-10-03T23:07:24;102338.16;;;15.10
24714;BMP280;12820;51.580;5.010;2022-10-03T23:12:37;102348.31;;;15.10
24714;BMP280;12820;51.580;5.010;2022-10-03T23:23:01;102349.16;;;15.11
24714;BMP280;12820;51.580;5.010;2022-10-03T23:43:39;102348.31;;;15.10
24714;BMP280;12820;51.580;5.010;2022-10-03T23:48:58;102346.63;;;15.09
24714;BMP280;12820;51.580;5.010;2022-10-03T23:54:04;102344.13;;;15.08
24714;BMP280;12820;51.580;5.010;2022-10-03T23:59:14;102339.91;;;15.05
